sensor_id;sensor_type;location;lat;lon;timestamp;temperature;humidity
78876;DHT22;68253;52.506;5.486;2023-09-19T00:01:42;15.70;64.40
78876;DHT22;68253;52.506;5.486;2023-09-19T00:04:12;15.70;64.60
78876;DHT22;68253;52.506;5.486;2023-09-19T00:06:39;15.70;64.50
78876;DHT22;68253;52.506;5.486;2023-09-19T00:09:05;15.80;64.40
78876;DHT22;68253;52.506;5.486;2023-09-19T00:11:37;15.70;64.50
78876;DHT22;68253;52.506;5.486;2023-09-19T00:14:04;15.70;64.60
78876;DHT22;68253;52.506;5.486;2023-09-19T00:16:34;15.70;64.30
78876;DHT22;68253;52.506;5.486;2023-09-19T00:19:02;15.60;64.70
78876;DHT22;68253;52.506;5.486;2023-09-19T00:21:34;15.60;65.10
78876;DHT22;68253;52.506;5.486;2023-09-19T00:24:01;15.60;65.40
78876;DHT22;68253;52.506;5.486;2023-09-19T00:26:27;15.60;65.60
78876;DHT22;68253;52.506;5.486;2023-09-19T00:28:56;15.50;65.80
78876;DHT22;68253;52.506;5.486;2023-09-19T00:31:23;15.50;66.10
78876;DHT22;68253;52.506;5.486;2023-09-19T00:33:49;15.40;66.30
78876;DHT22;68253;52.506;5.486;2023-09-19T00:36:15;15.40;66.20
78876;DHT22;68253;52.506;5.486;2023-09-19T00:38:41;15.30;66.50
78876;DHT22;68253;52.506;5.486;2023-09-19T00:41:07;15.30;66.70
78876;DHT22;68253;52.506;5.486;2023-09-19T00:43:33;15.20;66.90
78876;DHT22;68253;52.506;5.486;2023-09-19T00:46:00;15.20;67.00
78876;DHT22;68253;52.506;5.486;2023-09-19T00:48:29;15.10;67.10
78876;DHT22;68253;52.506;5.486;2023-09-19T00:50:58;15.00;67.30
78876;DHT22;68253;52.506;5.486;2023-09-19T00:53:25;15.00;67.50
78876;DHT22;68253;52.506;5.486;2023-09-19T00:55:54;15.00;67.60
78876;DHT22;68253;52.506;5.486;2023-09-19T00:58:22;15.00;67.80
78876;DHT22;68253;52.506;5.486;2023-09-19T01:00:49;15.00;67.80
78876;DHT22;68253;52.506;5.486;2023-09-19T01:03:15;15.00;68.00
78876;DHT22;68253;52.506;5.486;2023-09-19T01:05:44;15.00;68.10
78876;DHT22;68253;52.506;5.486;2023-09-19T01:08:11;14.90;68.30
78876;DHT22;68253;52.506;5.486;2023-09-19T01:10:46;14.90;68.50
78876;DHT22;68253;52.506;5.486;2023-09-19T01:15:59;14.90;68.80
78876;DHT22;68253;52.506;5.486;2023-09-19T01:22:04;14.70;69.00
78876;DHT22;68253;52.506;5.486;2023-09-19T01:30:21;14.60;69.30
78876;DHT22;68253;52.506;5.486;2023-09-19T01:32:51;14.60;69.30
78876;DHT22;68253;52.506;5.486;2023-09-19T01:35:18;14.60;69.30
78876;DHT22;68253;52.506;5.486;2023-09-19T01:37:45;14.60;69.00
78876;DHT22;68253;52.506;5.486;2023-09-19T01:40:17;14.60;69.00
78876;DHT22;68253;52.506;5.486;2023-09-19T01:43:12;14.60;69.00
78876;DHT22;68253;52.506;5.486;2023-09-19T01:46:17;14.60;68.90
78876;DHT22;68253;52.506;5.486;2023-09-19T01:49:24;14.50;69.10
78876;DHT22;68253;52.506;5.486;2023-09-19T01:54:30;14.40;69.50
78876;DHT22;68253;52.506;5.486;2023-09-19T01:57:10;14.40;69.60
78876;DHT22;68253;52.506;5.486;2023-09-19T01:59:41;14.40;69.70
78876;DHT22;68253;52.506;5.486;2023-09-19T02:02:10;14.40;69.80
78876;DHT22;68253;52.506;5.486;2023-09-19T02:04:37;14.30;70.00
78876;DHT22;68253;52.506;5.486;2023-09-19T02:07:03;14.30;70.10
78876;DHT22;68253;52.506;5.486;2023-09-19T02:09:31;14.30;70.20
78876;DHT22;68253;52.506;5.486;2023-09-19T02:12:02;14.30;70.30
78876;DHT22;68253;52.506;5.486;2023-09-19T02:14:29;14.30;70.40
78876;DHT22;68253;52.506;5.486;2023-09-19T02:16:56;14.30;70.30
78876;DHT22;68253;52.506;5.486;2023-09-19T02:19:22;14.30;70.30
78876;DHT22;68253;52.506;5.486;2023-09-19T02:21:49;14.30;70.30
78876;DHT22;68253;52.506;5.486;2023-09-19T02:24:15;14.40;70.30
78876;DHT22;68253;52.506;5.486;2023-09-19T02:26:42;14.40;70.40
78876;DHT22;68253;52.506;5.486;2023-09-19T02:29:08;14.40;70.30
78876;DHT22;68253;52.506;5.486;2023-09-19T02:31:36;14.40;70.30
78876;DHT22;68253;52.506;5.486;2023-09-19T02:34:03;14.40;70.20
78876;DHT22;68253;52.506;5.486;2023-09-19T02:36:29;14.50;70.10
78876;DHT22;68253;52.506;5.486;2023-09-19T02:38:56;14.50;70.00
78876;DHT22;68253;52.506;5.486;2023-09-19T02:41:22;14.50;69.80
78876;DHT22;68253;52.506;5.486;2023-09-19T02:43:49;14.50;70.00
78876;DHT22;68253;52.506;5.486;2023-09-19T02:46:15;14.50;70.20
78876;DHT22;68253;52.506;5.486;2023-09-19T02:48:43;14.50;70.50
78876;DHT22;68253;52.506;5.486;2023-09-19T02:51:09;14.50;70.70
78876;DHT22;68253;52.506;5.486;2023-09-19T02:53:35;14.50;70.70
78876;DHT22;68253;52.506;5.486;2023-09-19T02:56:01;14.50;70.80
78876;DHT22;68253;52.506;5.486;2023-09-19T02:58:29;14.50;70.80
78876;DHT22;68253;52.506;5.486;2023-09-19T03:00:56;14.50;70.80
78876;DHT22;68253;52.506;5.486;2023-09-19T03:03:24;14.50;70.90
78876;DHT22;68253;52.506;5.486;2023-09-19T03:05:50;14.50;71.00
78876;DHT22;68253;52.506;5.486;2023-09-19T03:08:18;14.50;71.00
78876;DHT22;68253;52.506;5.486;2023-09-19T03:10:47;14.50;71.00
78876;DHT22;68253;52.506;5.486;2023-09-19T03:13:14;14.50;71.00
78876;DHT22;68253;52.506;5.486;2023-09-19T03:15:43;14.40;71.00
78876;DHT22;68253;52.506;5.486;2023-09-19T03:18:12;14.40;70.90
78876;DHT22;68253;52.506;5.486;2023-09-19T03:20:39;14.40;70.90
78876;DHT22;68253;52.506;5.486;2023-09-19T03:23:05;14.40;70.80
78876;DHT22;68253;52.506;5.486;2023-09-19T03:25:34;14.40;70.80
78876;DHT22;68253;52.506;5.486;2023-09-19T03:28:02;14.40;70.80
78876;DHT22;68253;52.506;5.486;2023-09-19T03:30:32;14.30;70.80
78876;DHT22;68253;52.506;5.486;2023-09-19T03:33:00;14.30;70.90
78876;DHT22;68253;52.506;5.486;2023-09-19T03:35:27;14.30;70.80
78876;DHT22;68253;52.506;5.486;2023-09-19T03:37:53;14.30;70.90
78876;DHT22;68253;52.506;5.486;2023-09-19T03:40:19;14.30;71.00
78876;DHT22;68253;52.506;5.486;2023-09-19T03:42:47;14.20;70.90
78876;DHT22;68253;52.506;5.486;2023-09-19T03:45:14;14.20;70.90
78876;DHT22;68253;52.506;5.486;2023-09-19T03:47:44;14.20;71.00
78876;DHT22;68253;52.506;5.486;2023-09-19T03:50:13;14.30;71.10
78876;DHT22;68253;52.506;5.486;2023-09-19T03:52:46;14.30;71.10
78876;DHT22;68253;52.506;5.486;2023-09-19T03:55:12;14.40;71.00
78876;DHT22;68253;52.506;5.486;2023-09-19T03:57:40;14.30;70.90
78876;DHT22;68253;52.506;5.486;2023-09-19T04:00:06;14.30;70.90
78876;DHT22;68253;52.506;5.486;2023-09-19T04:02:40;14.30;70.80
78876;DHT22;68253;52.506;5.486;2023-09-19T04:05:07;14.30;70.70
78876;DHT22;68253;52.506;5.486;2023-09-19T04:07:33;14.30;70.80
78876;DHT22;68253;52.506;5.486;2023-09-19T04:10:00;14.30;70.70
78876;DHT22;68253;52.506;5.486;2023-09-19T04:12:27;14.30;70.70
78876;DHT22;68253;52.506;5.486;2023-09-19T04:14:53;14.30;70.70
78876;DHT22;68253;52.506;5.486;2023-09-19T04:17:20;14.30;70.70
78876;DHT22;68253;52.506;5.486;2023-09-19T04:19:46;14.40;70.60
78876;DHT22;68253;52.506;5.486;2023-09-19T04:22:12;14.40;70.70
78876;DHT22;68253;52.506;5.486;2023-09-19T04:24:38;14.30;70.80
78876;DHT22;68253;52.506;5.486;2023-09-19T04:27:05;14.30;70.90
78876;DHT22;68253;52.506;5.486;2023-09-19T04:29:31;14.30;70.90
78876;DHT22;68253;52.506;5.486;2023-09-19T04:31:57;14.30;70.90
78876;DHT22;68253;52.506;5.486;2023-09-19T04:34:24;14.30;70.80
78876;DHT22;68253;52.506;5.486;2023-09-19T04:36:50;14.30;70.80
78876;DHT22;68253;52.506;5.486;2023-09-19T04:39:16;14.20;70.80
78876;DHT22;68253;52.506;5.486;2023-09-19T04:41:43;14.20;70.80
78876;DHT22;68253;52.506;5.486;2023-09-19T04:44:11;14.20;70.80
78876;DHT22;68253;52.506;5.486;2023-09-19T04:46:38;14.10;70.90
78876;DHT22;68253;52.506;5.486;2023-09-19T04:49:05;14.10;70.90
78876;DHT22;68253;52.506;5.486;2023-09-19T04:51:31;14.10;70.90
78876;DHT22;68253;52.506;5.486;2023-09-19T04:54:00;14.10;71.00
78876;DHT22;68253;52.506;5.486;2023-09-19T04:56:26;14.10;71.20
78876;DHT22;68253;52.506;5.486;2023-09-19T04:58:54;14.10;71.30
78876;DHT22;68253;52.506;5.486;2023-09-19T05:01:20;14.10;71.40
78876;DHT22;68253;52.506;5.486;2023-09-19T05:03:49;14.10;71.50
78876;DHT22;68253;52.506;5.486;2023-09-19T05:06:19;14.10;71.50
78876;DHT22;68253;52.506;5.486;2023-09-19T05:08:50;14.10;71.50
78876;DHT22;68253;52.506;5.486;2023-09-19T05:11:19;14.10;71.50
78876;DHT22;68253;52.506;5.486;2023-09-19T05:13:50;14.10;71.60
78876;DHT22;68253;52.506;5.486;2023-09-19T05:16:16;14.20;71.60
78876;DHT22;68253;52.506;5.486;2023-09-19T05:18:42;14.20;71.60
78876;DHT22;68253;52.506;5.486;2023-09-19T05:21:09;14.20;71.60
78876;DHT22;68253;52.506;5.486;2023-09-19T05:23:35;14.30;71.50
78876;DHT22;68253;52.506;5.486;2023-09-19T05:26:03;14.30;71.40
78876;DHT22;68253;52.506;5.486;2023-09-19T05:28:29;14.30;71.40
78876;DHT22;68253;52.506;5.486;2023-09-19T05:30:56;14.30;71.40
78876;DHT22;68253;52.506;5.486;2023-09-19T05:33:22;14.40;71.50
78876;DHT22;68253;52.506;5.486;2023-09-19T05:35:48;14.40;71.50
78876;DHT22;68253;52.506;5.486;2023-09-19T05:38:14;14.40;71.60
78876;DHT22;68253;52.506;5.486;2023-09-19T05:40:45;14.40;71.60
78876;DHT22;68253;52.506;5.486;2023-09-19T05:43:11;14.40;71.50
78876;DHT22;68253;52.506;5.486;2023-09-19T05:45:38;14.40;71.50
78876;DHT22;68253;52.506;5.486;2023-09-19T05:48:12;14.40;71.50
78876;DHT22;68253;52.506;5.486;2023-09-19T05:50:39;14.40;71.50
78876;DHT22;68253;52.506;5.486;2023-09-19T05:53:06;14.40;71.70
78876;DHT22;68253;52.506;5.486;2023-09-19T05:55:32;14.40;72.10
78876;DHT22;68253;52.506;5.486;2023-09-19T05:57:59;14.40;72.10
78876;DHT22;68253;52.506;5.486;2023-09-19T06:00:26;14.40;72.10
78876;DHT22;68253;52.506;5.486;2023-09-19T06:02:54;14.40;72.20
78876;DHT22;68253;52.506;5.486;2023-09-19T06:05:22;14.30;72.20
78876;DHT22;68253;52.506;5.486;2023-09-19T06:07:48;14.30;72.10
78876;DHT22;68253;52.506;5.486;2023-09-19T06:10:18;14.30;72.10
78876;DHT22;68253;52.506;5.486;2023-09-19T06:12:46;14.30;72.20
78876;DHT22;68253;52.506;5.486;2023-09-19T06:15:15;14.30;72.30
78876;DHT22;68253;52.506;5.486;2023-09-19T06:17:43;14.30;72.30
78876;DHT22;68253;52.506;5.486;2023-09-19T06:20:09;14.40;72.30
78876;DHT22;68253;52.506;5.486;2023-09-19T06:22:42;14.40;72.20
78876;DHT22;68253;52.506;5.486;2023-09-19T06:25:13;14.40;72.30
78876;DHT22;68253;52.506;5.486;2023-09-19T06:27:42;14.40;72.30
78876;DHT22;68253;52.506;5.486;2023-09-19T06:30:09;14.50;72.30
78876;DHT22;68253;52.506;5.486;2023-09-19T06:32:37;14.50;72.40
78876;DHT22;68253;52.506;5.486;2023-09-19T06:35:04;14.70;72.30
78876;DHT22;68253;52.506;5.486;2023-09-19T06:37:33;14.80;72.30
78876;DHT22;68253;52.506;5.486;2023-09-19T06:40:00;15.00;72.00
78876;DHT22;68253;52.506;5.486;2023-09-19T06:42:26;15.20;71.40
78876;DHT22;68253;52.506;5.486;2023-09-19T06:44:54;15.30;71.00
78876;DHT22;68253;52.506;5.486;2023-09-19T06:47:20;15.50;70.60
78876;DHT22;68253;52.506;5.486;2023-09-19T06:49:46;15.60;69.80
78876;DHT22;68253;52.506;5.486;2023-09-19T06:52:13;15.80;69.60
78876;DHT22;68253;52.506;5.486;2023-09-19T06:54:40;15.90;68.70
78876;DHT22;68253;52.506;5.486;2023-09-19T06:57:07;16.00;68.70
78876;DHT22;68253;52.506;5.486;2023-09-19T06:59:36;15.90;68.50
78876;DHT22;68253;52.506;5.486;2023-09-19T07:02:03;15.80;68.70
78876;DHT22;68253;52.506;5.486;2023-09-19T07:04:32;15.80;69.00
78876;DHT22;68253;52.506;5.486;2023-09-19T07:06:58;15.80;68.90
78876;DHT22;68253;52.506;5.486;2023-09-19T07:09:25;16.00;69.10
78876;DHT22;68253;52.506;5.486;2023-09-19T07:11:53;16.00;68.80
78876;DHT22;68253;52.506;5.486;2023-09-19T07:14:20;16.10;68.60
78876;DHT22;68253;52.506;5.486;2023-09-19T07:16:46;16.30;68.40
78876;DHT22;68253;52.506;5.486;2023-09-19T07:19:13;16.40;68.00
78876;DHT22;68253;52.506;5.486;2023-09-19T07:21:41;16.40;67.80
78876;DHT22;68253;52.506;5.486;2023-09-19T07:24:08;16.30;68.20
78876;DHT22;68253;52.506;5.486;2023-09-19T07:26:34;16.20;68.30
78876;DHT22;68253;52.506;5.486;2023-09-19T07:29:00;16.20;68.20
78876;DHT22;68253;52.506;5.486;2023-09-19T07:31:29;16.20;68.20
78876;DHT22;68253;52.506;5.486;2023-09-19T07:33:56;16.40;68.60
78876;DHT22;68253;52.506;5.486;2023-09-19T07:36:22;16.50;68.70
78876;DHT22;68253;52.506;5.486;2023-09-19T07:38:50;16.70;68.00
78876;DHT22;68253;52.506;5.486;2023-09-19T07:41:16;16.80;67.20
78876;DHT22;68253;52.506;5.486;2023-09-19T07:43:42;16.90;67.60
78876;DHT22;68253;52.506;5.486;2023-09-19T07:46:10;17.00;67.60
78876;DHT22;68253;52.506;5.486;2023-09-19T07:48:37;17.10;67.20
78876;DHT22;68253;52.506;5.486;2023-09-19T07:51:08;17.20;66.80
78876;DHT22;68253;52.506;5.486;2023-09-19T07:53:35;17.30;67.00
78876;DHT22;68253;52.506;5.486;2023-09-19T07:56:03;17.50;66.70
78876;DHT22;68253;52.506;5.486;2023-09-19T07:58:29;17.50;66.30
78876;DHT22;68253;52.506;5.486;2023-09-19T08:00:55;17.50;66.10
78876;DHT22;68253;52.506;5.486;2023-09-19T08:03:22;17.40;66.50
78876;DHT22;68253;52.506;5.486;2023-09-19T08:05:48;17.50;67.10
78876;DHT22;68253;52.506;5.486;2023-09-19T08:08:14;17.70;66.60
78876;DHT22;68253;52.506;5.486;2023-09-19T08:10:40;17.80;65.90
78876;DHT22;68253;52.506;5.486;2023-09-19T08:13:08;18.00;65.30
78876;DHT22;68253;52.506;5.486;2023-09-19T08:15:43;18.00;65.90
78876;DHT22;68253;52.506;5.486;2023-09-19T08:18:10;18.10;65.90
78876;DHT22;68253;52.506;5.486;2023-09-19T08:20:39;18.30;64.60
78876;DHT22;68253;52.506;5.486;2023-09-19T08:23:08;18.40;64.60
78876;DHT22;68253;52.506;5.486;2023-09-19T08:25:34;18.50;64.60
78876;DHT22;68253;52.506;5.486;2023-09-19T08:28:00;18.60;64.40
78876;DHT22;68253;52.506;5.486;2023-09-19T08:30:29;18.70;64.50
78876;DHT22;68253;52.506;5.486;2023-09-19T08:33:00;19.00;63.70
78876;DHT22;68253;52.506;5.486;2023-09-19T08:35:27;19.10;62.80
78876;DHT22;68253;52.506;5.486;2023-09-19T08:37:53;19.30;62.80
78876;DHT22;68253;52.506;5.486;2023-09-19T08:40:21;19.30;62.50
78876;DHT22;68253;52.506;5.486;2023-09-19T08:42:48;19.30;62.70
78876;DHT22;68253;52.506;5.486;2023-09-19T08:45:16;19.40;62.20
78876;DHT22;68253;52.506;5.486;2023-09-19T08:47:58;19.30;62.20
78876;DHT22;68253;52.506;5.486;2023-09-19T08:50:28;19.30;62.80
78876;DHT22;68253;52.506;5.486;2023-09-19T08:52:56;19.40;62.30
78876;DHT22;68253;52.506;5.486;2023-09-19T08:55:29;19.50;62.40
78876;DHT22;68253;52.506;5.486;2023-09-19T08:58:03;19.50;61.80
78876;DHT22;68253;52.506;5.486;2023-09-19T09:00:30;19.50;61.90
78876;DHT22;68253;52.506;5.486;2023-09-19T09:02:58;19.40;62.10
78876;DHT22;68253;52.506;5.486;2023-09-19T09:05:25;19.30;62.00
78876;DHT22;68253;52.506;5.486;2023-09-19T09:07:52;19.30;62.80
78876;DHT22;68253;52.506;5.486;2023-09-19T09:10:23;19.50;62.80
78876;DHT22;68253;52.506;5.486;2023-09-19T09:12:53;19.70;62.20
78876;DHT22;68253;52.506;5.486;2023-09-19T09:15:23;19.70;61.60
78876;DHT22;68253;52.506;5.486;2023-09-19T09:17:51;19.70;61.70
78876;DHT22;68253;52.506;5.486;2023-09-19T09:20:19;19.90;61.30
78876;DHT22;68253;52.506;5.486;2023-09-19T09:22:52;19.90;61.60
78876;DHT22;68253;52.506;5.486;2023-09-19T09:28:19;20.00;61.60
78876;DHT22;68253;52.506;5.486;2023-09-19T09:30:46;20.00;60.80
78876;DHT22;68253;52.506;5.486;2023-09-19T09:33:13;20.00;61.00
78876;DHT22;68253;52.506;5.486;2023-09-19T09:38:21;19.50;61.10
78876;DHT22;68253;52.506;5.486;2023-09-19T09:40:52;19.30;61.40
78876;DHT22;68253;52.506;5.486;2023-09-19T09:43:39;19.20;62.10
78876;DHT22;68253;52.506;5.486;2023-09-19T09:46:10;19.40;62.20
78876;DHT22;68253;52.506;5.486;2023-09-19T09:51:57;19.90;61.60
78876;DHT22;68253;52.506;5.486;2023-09-19T09:54:26;19.90;61.00
78876;DHT22;68253;52.506;5.486;2023-09-19T09:57:00;19.70;61.30
78876;DHT22;68253;52.506;5.486;2023-09-19T09:59:51;19.50;61.40
78876;DHT22;68253;52.506;5.486;2023-09-19T10:02:29;19.50;61.50
78876;DHT22;68253;52.506;5.486;2023-09-19T10:04:59;19.50;61.50
78876;DHT22;68253;52.506;5.486;2023-09-19T10:07:36;19.60;61.90
78876;DHT22;68253;52.506;5.486;2023-09-19T10:10:07;19.70;61.10
78876;DHT22;68253;52.506;5.486;2023-09-19T10:12:42;19.70;61.20
78876;DHT22;68253;52.506;5.486;2023-09-19T10:15:11;19.70;61.10
78876;DHT22;68253;52.506;5.486;2023-09-19T10:17:38;19.50;61.30
78876;DHT22;68253;52.506;5.486;2023-09-19T10:20:17;19.30;61.80
78876;DHT22;68253;52.506;5.486;2023-09-19T10:22:50;19.20;62.20
78876;DHT22;68253;52.506;5.486;2023-09-19T10:25:25;19.10;62.90
78876;DHT22;68253;52.506;5.486;2023-09-19T10:27:52;19.30;61.90
78876;DHT22;68253;52.506;5.486;2023-09-19T10:30:23;19.40;61.60
78876;DHT22;68253;52.506;5.486;2023-09-19T10:32:56;19.50;62.00
78876;DHT22;68253;52.506;5.486;2023-09-19T10:35:23;19.50;62.00
78876;DHT22;68253;52.506;5.486;2023-09-19T10:37:50;19.40;62.20
78876;DHT22;68253;52.506;5.486;2023-09-19T10:40:18;19.40;62.50
78876;DHT22;68253;52.506;5.486;2023-09-19T10:42:46;19.50;61.70
78876;DHT22;68253;52.506;5.486;2023-09-19T10:45:15;19.40;62.10
78876;DHT22;68253;52.506;5.486;2023-09-19T10:47:44;19.50;62.20
78876;DHT22;68253;52.506;5.486;2023-09-19T10:50:19;19.70;61.90
78876;DHT22;68253;52.506;5.486;2023-09-19T10:52:48;19.80;61.40
78876;DHT22;68253;52.506;5.486;2023-09-19T10:55:25;19.90;61.20
78876;DHT22;68253;52.506;5.486;2023-09-19T10:57:54;19.80;61.40
78876;DHT22;68253;52.506;5.486;2023-09-19T11:03:22;19.70;61.30
78876;DHT22;68253;52.506;5.486;2023-09-19T11:06:06;19.50;61.40
78876;DHT22;68253;52.506;5.486;2023-09-19T11:09:01;19.50;61.40
78876;DHT22;68253;52.506;5.486;2023-09-19T11:11:46;19.40;61.90
78876;DHT22;68253;52.506;5.486;2023-09-19T11:30:42;19.10;62.90
78876;DHT22;68253;52.506;5.486;2023-09-19T11:33:30;19.10;62.70
78876;DHT22;68253;52.506;5.486;2023-09-19T11:44:37;19.20;62.80
78876;DHT22;68253;52.506;5.486;2023-09-19T11:49:28;19.70;61.90
78876;DHT22;68253;52.506;5.486;2023-09-19T11:51:58;20.00;61.50
78876;DHT22;68253;52.506;5.486;2023-09-19T11:54:31;20.20;61.10
78876;DHT22;68253;52.506;5.486;2023-09-19T11:56:59;20.30;60.50
78876;DHT22;68253;52.506;5.486;2023-09-19T11:59:27;20.30;60.70
78876;DHT22;68253;52.506;5.486;2023-09-19T12:02:01;20.10;61.00
78876;DHT22;68253;52.506;5.486;2023-09-19T12:07:09;19.90;61.20
78876;DHT22;68253;52.506;5.486;2023-09-19T12:09:42;19.70;61.60
78876;DHT22;68253;52.506;5.486;2023-09-19T12:12:28;19.50;61.70
78876;DHT22;68253;52.506;5.486;2023-09-19T12:14:55;19.40;61.70
78876;DHT22;68253;52.506;5.486;2023-09-19T12:17:38;19.40;61.50
78876;DHT22;68253;52.506;5.486;2023-09-19T12:20:08;19.30;61.90
78876;DHT22;68253;52.506;5.486;2023-09-19T12:22:43;19.30;62.10
78876;DHT22;68253;52.506;5.486;2023-09-19T12:25:10;19.20;61.90
78876;DHT22;68253;52.506;5.486;2023-09-19T12:27:44;19.10;62.20
78876;DHT22;68253;52.506;5.486;2023-09-19T12:30:13;19.10;62.40
78876;DHT22;68253;52.506;5.486;2023-09-19T12:32:45;19.00;62.50
78876;DHT22;68253;52.506;5.486;2023-09-19T12:35:27;18.90;62.90
78876;DHT22;68253;52.506;5.486;2023-09-19T12:37:54;18.90;63.00
78876;DHT22;68253;52.506;5.486;2023-09-19T12:40:21;18.80;63.20
78876;DHT22;68253;52.506;5.486;2023-09-19T12:42:49;18.80;63.30
78876;DHT22;68253;52.506;5.486;2023-09-19T12:45:16;18.70;63.40
78876;DHT22;68253;52.506;5.486;2023-09-19T12:51:06;18.70;63.70
78876;DHT22;68253;52.506;5.486;2023-09-19T12:53:57;18.60;63.80
78876;DHT22;68253;52.506;5.486;2023-09-19T12:56:23;18.60;63.90
78876;DHT22;68253;52.506;5.486;2023-09-19T12:58:59;18.60;64.10
78876;DHT22;68253;52.506;5.486;2023-09-19T13:01:29;18.70;64.20
78876;DHT22;68253;52.506;5.486;2023-09-19T13:06:50;18.80;64.00
78876;DHT22;68253;52.506;5.486;2023-09-19T13:09:17;18.80;64.10
78876;DHT22;68253;52.506;5.486;2023-09-19T13:11:43;18.80;64.10
78876;DHT22;68253;52.506;5.486;2023-09-19T13:14:19;18.80;64.20
78876;DHT22;68253;52.506;5.486;2023-09-19T13:19:38;19.10;63.90
78876;DHT22;68253;52.506;5.486;2023-09-19T13:22:44;19.30;63.70
78876;DHT22;68253;52.506;5.486;2023-09-19T13:25:18;19.70;63.40
78876;DHT22;68253;52.506;5.486;2023-09-19T13:27:50;20.00;62.30
78876;DHT22;68253;52.506;5.486;2023-09-19T13:30:18;20.00;62.30
78876;DHT22;68253;52.506;5.486;2023-09-19T13:32:45;20.00;62.50
78876;DHT22;68253;52.506;5.486;2023-09-19T13:35:16;20.00;62.70
78876;DHT22;68253;52.506;5.486;2023-09-19T13:37:43;20.00;62.60
78876;DHT22;68253;52.506;5.486;2023-09-19T13:40:11;19.90;63.00
78876;DHT22;68253;52.506;5.486;2023-09-19T13:42:38;19.70;63.00
78876;DHT22;68253;52.506;5.486;2023-09-19T13:45:04;19.60;63.00
78876;DHT22;68253;52.506;5.486;2023-09-19T13:47:31;19.50;63.10
78876;DHT22;68253;52.506;5.486;2023-09-19T13:49:59;19.50;63.20
78876;DHT22;68253;52.506;5.486;2023-09-19T13:52:26;19.40;63.40
78876;DHT22;68253;52.506;5.486;2023-09-19T13:54:55;19.30;63.70
78876;DHT22;68253;52.506;5.486;2023-09-19T13:57:24;19.20;63.70
78876;DHT22;68253;52.506;5.486;2023-09-19T13:59:51;19.20;63.70
78876;DHT22;68253;52.506;5.486;2023-09-19T14:02:18;19.10;64.10
78876;DHT22;68253;52.506;5.486;2023-09-19T14:04:44;19.00;64.40
78876;DHT22;68253;52.506;5.486;2023-09-19T14:07:11;19.00;64.70
78876;DHT22;68253;52.506;5.486;2023-09-19T14:09:37;18.90;65.50
78876;DHT22;68253;52.506;5.486;2023-09-19T14:12:04;18.80;66.50
78876;DHT22;68253;52.506;5.486;2023-09-19T14:14:30;18.70;66.80
78876;DHT22;68253;52.506;5.486;2023-09-19T14:16:56;18.50;67.30
78876;DHT22;68253;52.506;5.486;2023-09-19T14:19:22;18.50;67.50
78876;DHT22;68253;52.506;5.486;2023-09-19T14:21:48;18.40;67.70
78876;DHT22;68253;52.506;5.486;2023-09-19T14:24:18;18.40;68.20
78876;DHT22;68253;52.506;5.486;2023-09-19T14:26:45;18.30;68.70
78876;DHT22;68253;52.506;5.486;2023-09-19T14:29:11;18.30;69.40
78876;DHT22;68253;52.506;5.486;2023-09-19T14:31:39;18.20;69.60
78876;DHT22;68253;52.506;5.486;2023-09-19T14:34:06;18.10;69.80
78876;DHT22;68253;52.506;5.486;2023-09-19T14:36:33;18.00;69.90
78876;DHT22;68253;52.506;5.486;2023-09-19T14:38:59;18.00;70.00
78876;DHT22;68253;52.506;5.486;2023-09-19T14:41:25;18.00;70.00
78876;DHT22;68253;52.506;5.486;2023-09-19T14:43:52;18.00;69.70
78876;DHT22;68253;52.506;5.486;2023-09-19T14:46:18;18.00;69.70
78876;DHT22;68253;52.506;5.486;2023-09-19T14:48:45;18.00;69.30
78876;DHT22;68253;52.506;5.486;2023-09-19T14:51:14;18.00;69.10
78876;DHT22;68253;52.506;5.486;2023-09-19T14:53:41;18.00;69.20
78876;DHT22;68253;52.506;5.486;2023-09-19T14:56:09;18.00;69.10
78876;DHT22;68253;52.506;5.486;2023-09-19T14:58:35;18.00;68.80
78876;DHT22;68253;52.506;5.486;2023-09-19T15:01:06;18.00;69.00
78876;DHT22;68253;52.506;5.486;2023-09-19T15:03:33;18.00;69.10
78876;DHT22;68253;52.506;5.486;2023-09-19T15:06:01;17.90;69.50
78876;DHT22;68253;52.506;5.486;2023-09-19T15:08:27;17.80;70.20
78876;DHT22;68253;52.506;5.486;2023-09-19T15:10:53;17.80;70.50
78876;DHT22;68253;52.506;5.486;2023-09-19T15:13:20;17.60;71.00
78876;DHT22;68253;52.506;5.486;2023-09-19T15:15:46;17.50;71.40
78876;DHT22;68253;52.506;5.486;2023-09-19T15:18:14;17.50;71.90
78876;DHT22;68253;52.506;5.486;2023-09-19T15:20:44;17.40;72.30
78876;DHT22;68253;52.506;5.486;2023-09-19T15:23:10;17.20;72.50
78876;DHT22;68253;52.506;5.486;2023-09-19T15:25:39;17.20;72.70
78876;DHT22;68253;52.506;5.486;2023-09-19T15:28:06;17.20;73.00
78876;DHT22;68253;52.506;5.486;2023-09-19T15:30:40;17.10;73.10
78876;DHT22;68253;52.506;5.486;2023-09-19T15:33:06;17.00;73.20
78876;DHT22;68253;52.506;5.486;2023-09-19T15:35:32;17.00;73.20
78876;DHT22;68253;52.506;5.486;2023-09-19T15:37:58;17.00;73.30
78876;DHT22;68253;52.506;5.486;2023-09-19T15:40:26;17.00;73.10
78876;DHT22;68253;52.506;5.486;2023-09-19T15:42:56;17.00;72.90
78876;DHT22;68253;52.506;5.486;2023-09-19T15:45:24;17.00;72.80
78876;DHT22;68253;52.506;5.486;2023-09-19T15:47:51;17.00;72.80
78876;DHT22;68253;52.506;5.486;2023-09-19T15:50:17;17.10;72.80
78876;DHT22;68253;52.506;5.486;2023-09-19T15:52:44;17.10;72.80
78876;DHT22;68253;52.506;5.486;2023-09-19T15:55:10;17.20;72.50
78876;DHT22;68253;52.506;5.486;2023-09-19T15:57:38;17.20;72.50
78876;DHT22;68253;52.506;5.486;2023-09-19T16:00:05;17.20;72.50
78876;DHT22;68253;52.506;5.486;2023-09-19T16:02:37;17.20;72.20
78876;DHT22;68253;52.506;5.486;2023-09-19T16:05:03;17.20;72.50
78876;DHT22;68253;52.506;5.486;2023-09-19T16:07:32;17.20;72.80
78876;DHT22;68253;52.506;5.486;2023-09-19T16:09:59;17.10;73.00
78876;DHT22;68253;52.506;5.486;2023-09-19T16:12:26;17.00;73.10
78876;DHT22;68253;52.506;5.486;2023-09-19T16:14:52;17.00;73.20
78876;DHT22;68253;52.506;5.486;2023-09-19T16:17:18;17.00;73.20
78876;DHT22;68253;52.506;5.486;2023-09-19T16:19:44;17.00;73.20
78876;DHT22;68253;52.506;5.486;2023-09-19T16:22:10;17.00;73.10
78876;DHT22;68253;52.506;5.486;2023-09-19T16:24:36;17.00;72.60
78876;DHT22;68253;52.506;5.486;2023-09-19T16:27:03;17.00;72.50
78876;DHT22;68253;52.506;5.486;2023-09-19T16:29:29;17.10;72.30
78876;DHT22;68253;52.506;5.486;2023-09-19T16:31:56;17.10;72.30
78876;DHT22;68253;52.506;5.486;2023-09-19T16:34:22;17.20;72.10
78876;DHT22;68253;52.506;5.486;2023-09-19T16:36:48;17.20;72.10
78876;DHT22;68253;52.506;5.486;2023-09-19T16:39:14;17.20;72.20
78876;DHT22;68253;52.506;5.486;2023-09-19T16:41:41;17.20;72.30
78876;DHT22;68253;52.506;5.486;2023-09-19T16:44:08;17.20;72.40
78876;DHT22;68253;52.506;5.486;2023-09-19T16:46:35;17.20;72.50